Time,TemperatureF,DewpointF,PressureIn,WindDirection,WindDirectionDegrees,WindSpeedMPH,WindSpeedGustMPH,Humidity,HourlyPrecipIn,Conditions,Clouds,dailyrainin,SolarRadiationWatts/m^2,SoftwareType,DateUTC
2013-02-24 00:03:00,35.7,31.3,30.41,SSE,148,0.0,0.0,84,0.00,BKN,OVC,0.00,0.0,WeatherDisplay:10.37,2013-02-24 00:03:00,
2013-02-24 00:08:00,35.7,31.0,30.41,South,183,0.0,0.0,83,0.00,BKN,OVC,0.00,0.0,WeatherDisplay:10.37,2013-02-24 00:08:00,
2013-02-24 00:13:00,35.9,31.2,30.42,SE,126,2.3,2.3,83,0.00,BKN,OVC,0.00,0.0,WeatherDisplay:10.37,2013-02-24 00:13:00,
2013-02-24 00:18:00,36.1,31.1,30.42,East,101,2.3,2.3,82,0.00,BKN,OVC,0.00,0.0,WeatherDisplay:10.37,2013-02-24 00:18:00,
2013-02-24 00:23:00,36.1,31.1,30.42,ESE,114,2.3,2.3,82,0.00,BKN,OVC,0.00,0.0,WeatherDisplay:10.37,2013-02-24 00:23:00,
2013-02-24 00:28:00,36.1,31.4,30.42,West,280,1.2,1.2,83,0.00,BKN,OVC,0.00,0.0,WeatherDisplay:10.37,2013-02-24 00:28:00,
2013-02-24 00:33:00,36.1,31.4,30.42,SW,224,0.0,0.0,83,0.00,BKN,OVC,0.00,0.0,WeatherDisplay:10.37,2013-02-24 00:33:00,
2013-02-24 00:38:00,36.0,31.0,30.42,West,262,0.0,0.0,82,0.00,BKN,OVC,0.00,0.0,WeatherDisplay:10.37,2013-02-24 00:38:00,
2013-02-24 00:43:00,36.0,31.0,30.42,West,262,0.0,0.0,82,0.00,BKN,OVC,0.00,0.0,WeatherDisplay:10.37,2013-02-24 00:43:00,
2013-02-24 00:48:00,36.0,31.3,30.41,SE,138,1.2,0.0,83,0.00,-SG,OVC,0.00,0.0,WeatherDisplay:10.37,2013-02-24 00:48:00,
2013-02-24 00:53:00,35.9,31.2,30.41,SE,138,0.0,0.0,83,0.00,-SG,OVC,0.00,0.0,WeatherDisplay:10.37,2013-02-24 00:53:00,
2013-02-24 00:58:00,35.9,31.2,30.41,SE,139,0.0,0.0,83,0.00,-SG,OVC,0.00,0.0,WeatherDisplay:10.37,2013-02-24 00:58:00,
2013-02-24 01:03:00,35.8,31.1,30.41,SE,139,0.0,0.0,83,0.00,OVC,,0.00,0.0,WeatherDisplay:10.37,2013-02-24 01:03:00,
2013-02-24 01:08:00,35.7,31.0,30.41,SE,125,1.2,1.2,83,0.00,OVC,,0.00,0.0,WeatherDisplay:10.37,2013-02-24 01:08:00,
2013-02-24 01:13:00,35.7,31.0,30.41,SE,126,1.2,1.2,83,0.00,OVC,,0.00,0.0,WeatherDisplay:10.37,2013-02-24 01:13:00,
2013-02-24 01:18:00,35.6,31.2,30.41,SSE,149,1.2,1.2,84,0.00,OVC,,0.00,0.0,WeatherDisplay:10.37,2013-02-24 01:18:00,
2013-02-24 01:23:00,35.7,31.3,30.41,SE,127,1.2,1.2,84,0.00,OVC,,0.00,0.0,WeatherDisplay:10.37,2013-02-24 01:23:00,
2013-02-24 01:28:00,35.7,31.3,30.41,SE,141,0.0,0.1,84,0.00,OVC,,0.00,0.0,WeatherDisplay:10.37,2013-02-24 01:28:00,
2013-02-24 01:33:00,35.7,31.3,30.41,SE,135,1.2,1.2,84,0.00,BKN,OVC,0.00,0.0,WeatherDisplay:10.37,2013-02-24 01:33:00,
2013-02-24 01:38:00,35.6,31.2,30.41,SE,136,0.0,0.0,84,0.00,BKN,OVC,0.00,0.0,WeatherDisplay:10.37,2013-02-24 01:38:00,
2013-02-24 01:43:00,35.5,31.1,30.41,SSE,156,0.0,0.0,84,0.00,BKN,OVC,0.00,0.0,WeatherDisplay:10.37,2013-02-24 01:43:00,
2013-02-24 01:48:00,35.3,30.7,30.41,SSE,157,0.0,0.0,83,0.00,BKN,OVC,0.00,0.0,WeatherDisplay:10.37,2013-02-24 01:48:00,
2013-02-24 01:53:00,35.1,30.5,30.41,SSE,156,0.0,0.0,83,0.00,BKN,OVC,0.00,0.0,WeatherDisplay:10.37,2013-02-24 01:53:00,
2013-02-24 01:58:00,34.9,30.6,30.41,WNW,287,1.2,0.0,84,0.00,BKN,OVC,0.00,0.0,WeatherDisplay:10.37,2013-02-24 01:58:00,
2013-02-24 02:03:00,34.9,30.3,30.41,WSW,248,0.0,0.0,83,0.00,SCT,OVC,0.00,0.0,WeatherDisplay:10.37,2013-02-24 02:03:00,
2013-02-24 02:08:00,35.0,30.4,30.41,SSW,199,3.5,3.5,83,0.00,SCT,OVC,0.00,0.0,WeatherDisplay:10.37,2013-02-24 02:08:00,
2013-02-24 02:13:00,35.1,30.5,30.42,SE,127,2.3,2.3,83,0.00,SCT,OVC,0.00,0.0,WeatherDisplay:10.37,2013-02-24 02:13:00,
2013-02-24 02:18:00,34.9,30.3,30.41,WSW,250,2.3,0.0,83,0.00,SCT,OVC,0.00,0.0,WeatherDisplay:10.37,2013-02-24 02:18:00,
2013-02-24 02:23:00,34.8,30.2,30.41,ESE,116,1.2,1.2,83,0.00,SCT,OVC,0.00,0.0,WeatherDisplay:10.37,2013-02-24 02:23:00,
2013-02-24 02:28:00,34.5,29.9,30.41,SE,126,0.0,0.0,83,0.00,SCT,OVC,0.00,0.0,WeatherDisplay:10.37,2013-02-24 02:28:00,
2013-02-24 02:33:00,34.3,30.0,30.41,ESE,110,0.0,0.0,84,0.00,BKN,OVC,0.00,0.0,WeatherDisplay:10.37,2013-02-24 02:33:00,
2013-02-24 02:38:00,34.1,29.8,30.41,East,99,0.0,0.0,84,0.00,BKN,OVC,0.00,0.0,WeatherDisplay:10.37,2013-02-24 02:38:00,
2013-02-24 02:43:00,33.9,29.9,30.41,SE,134,0.0,0.0,85,0.00,BKN,OVC,0.00,0.0,WeatherDisplay:10.37,2013-02-24 02:43:00,
2013-02-24 02:48:00,33.7,29.7,30.41,SE,129,1.2,1.2,85,0.00,BKN,OVC,0.00,0.0,WeatherDisplay:10.37,2013-02-24 02:48:00,
2013-02-24 02:53:00,33.6,29.9,30.41,WSW,242,0.0,0.0,86,0.00,BKN,OVC,0.00,0.0,WeatherDisplay:10.37,2013-02-24 02:53:00,
2013-02-24 02:58:00,33.5,29.8,30.41,SW,226,0.0,0.0,86,0.00,BKN,OVC,0.00,0.0,WeatherDisplay:10.37,2013-02-24 02:58:00,
2013-02-24 03:04:00,33.3,29.6,30.41,SW,226,0.0,0.0,86,0.00,OVC,,0.00,0.0,WeatherDisplay:10.37,2013-02-24 03:04:00,
2013-02-24 03:09:00,33.1,29.4,30.41,SW,226,0.0,0.0,86,0.00,OVC,,0.00,0.0,WeatherDisplay:10.37,2013-02-24 03:09:00,
2013-02-24 03:14:00,32.8,29.1,30.42,SW,226,0.0,0.0,86,0.00,OVC,,0.00,0.0,WeatherDisplay:10.37,2013-02-24 03:14:00,
2013-02-24 03:19:00,32.7,29.0,30.42,SW,226,0.0,0.0,86,0.00,OVC,,0.00,0.0,WeatherDisplay:10.37,2013-02-24 03:19:00,
2013-02-24 03:24:00,32.6,29.2,30.42,SW,226,0.0,0.0,87,0.00,OVC,,0.00,0.0,WeatherDisplay:10.37,2013-02-24 03:24:00,
2013-02-24 03:29:00,32.7,29.5,30.41,SW,226,0.0,0.0,88,0.00,OVC,,0.00,0.0,WeatherDisplay:10.37,2013-02-24 03:29:00,
2013-02-24 03:34:00,32.9,29.7,30.41,SW,231,0.0,0.0,88,0.00,OVC,,0.00,0.0,WeatherDisplay:10.37,2013-02-24 03:34:00,
2013-02-24 03:39:00,33.1,29.9,30.41,SW,231,0.0,0.0,88,0.00,OVC,,0.00,0.0,WeatherDisplay:10.37,2013-02-24 03:39:00,
2013-02-24 03:44:00,33.2,29.8,30.41,SW,231,0.0,0.0,87,0.00,OVC,,0.00,0.0,WeatherDisplay:10.37,2013-02-24 03:44:00,
2013-02-24 03:49:00,33.3,29.8,30.41,SW,230,0.0,0.0,87,0.00,OVC,,0.00,0.0,WeatherDisplay:10.37,2013-02-24 03:49:00,
2013-02-24 03:54:00,33.5,30.0,30.41,SW,231,0.0,0.0,87,0.00,OVC,,0.00,0.0,WeatherDisplay:10.37,2013-02-24 03:54:00,
2013-02-24 03:59:00,33.6,30.1,30.41,SW,231,0.0,0.0,87,0.00,OVC,,0.00,0.0,WeatherDisplay:10.37,2013-02-24 03:59:00,
2013-02-24 04:04:00,33.6,30.1,30.41,SW,231,0.0,0.0,87,0.00,BKN,OVC,0.00,0.0,WeatherDisplay:10.37,2013-02-24 04:04:00,
2013-02-24 04:09:00,33.6,30.1,30.41,SW,231,0.0,0.0,87,0.00,BKN,OVC,0.00,0.0,WeatherDisplay:10.37,2013-02-24 04:09:00,
2013-02-24 04:14:00,33.6,30.1,30.42,SW,231,0.0,0.0,87,0.00,BKN,OVC,0.00,0.0,WeatherDisplay:10.37,2013-02-24 04:14:00,
2013-02-24 04:19:00,33.8,30.3,30.42,SW,231,0.0,0.0,87,0.00,BKN,OVC,0.00,0.0,WeatherDisplay:10.37,2013-02-24 04:19:00,
2013-02-24 04:24:00,34.0,30.3,30.41,SW,231,0.0,0.0,86,0.00,BKN,OVC,0.00,0.0,WeatherDisplay:10.37,2013-02-24 04:24:00,
2013-02-24 04:29:00,34.0,30.3,30.42,SW,231,0.0,0.0,86,0.00,BKN,OVC,0.00,0.0,WeatherDisplay:10.37,2013-02-24 04:29:00,
2013-02-24 04:34:00,34.0,30.3,30.42,SSE,157,2.3,0.0,86,0.00,BKN,OVC,0.00,0.0,WeatherDisplay:10.37,2013-02-24 04:34:00,
2013-02-24 04:39:00,34.0,30.3,30.42,SSE,156,0.0,0.0,86,0.00,BKN,OVC,0.00,0.0,WeatherDisplay:10.37,2013-02-24 04:39:00,
2013-02-24 04:44:00,33.8,30.1,30.42,SSE,156,0.0,0.0,86,0.00,BKN,OVC,0.00,0.0,WeatherDisplay:10.37,2013-02-24 04:44:00,
2013-02-24 04:49:00,33.7,30.0,30.41,SSE,156,0.0,0.0,86,0.00,BKN,OVC,0.00,0.0,WeatherDisplay:10.37,2013-02-24 04:49:00,
2013-02-24 04:54:00,33.6,29.9,30.41,SSE,156,0.0,0.0,86,0.00,BKN,OVC,0.00,0.0,WeatherDisplay:10.37,2013-02-24 04:54:00,
2013-02-24 04:59:00,33.2,29.5,30.42,SSE,156,0.0,0.0,86,0.00,BKN,OVC,0.00,0.0,WeatherDisplay:10.37,2013-02-24 04:59:00,
2013-02-24 05:00:00,33.2,29.5,30.42,SSE,156,0.0,0.0,86,0.00,BKN,OVC,0.00,0.0,WeatherDisplay:10.37,2013-02-24 05:00:00,
2013-02-24 05:05:00,33.2,30.0,30.42,WNW,301,3.5,3.5,88,0.00,BKN,OVC,0.00,0.0,WeatherDisplay:10.37,2013-02-24 05:05:00,
2013-02-24 05:10:00,33.8,30.6,30.42,SW,219,0.0,0.0,88,0.00,BKN,OVC,0.00,0.0,WeatherDisplay:10.37,2013-02-24 05:10:00,
2013-02-24 05:15:00,33.9,30.4,30.42,South,179,0.0,0.0,87,0.00,BKN,OVC,0.00,0.0,WeatherDisplay:10.37,2013-02-24 05:15:00,
2013-02-24 05:20:00,34.0,30.5,30.41,SE,134,2.3,2.3,87,0.00,OVC,,0.00,0.0,WeatherDisplay:10.37,2013-02-24 05:20:00,
2013-02-24 05:25:00,34.3,30.8,30.41,SSE,150,0.0,0.0,87,0.00,OVC,,0.00,0.0,WeatherDisplay:10.37,2013-02-24 05:25:00,
2013-02-24 05:30:00,34.4,30.9,30.41,SSE,150,0.0,0.0,87,0.00,OVC,,0.00,0.0,WeatherDisplay:10.37,2013-02-24 05:30:00,
2013-02-24 05:35:00,34.5,30.7,30.41,SE,131,1.2,1.2,86,0.00,OVC,,0.00,0.0,WeatherDisplay:10.37,2013-02-24 05:35:00,
2013-02-24 05:40:00,34.7,30.9,30.41,SSE,167,0.0,0.0,86,0.00,OVC,,0.00,0.0,WeatherDisplay:10.37,2013-02-24 05:40:00,
2013-02-24 05:45:00,34.5,30.5,30.41,South,190,0.0,0.0,85,0.00,OVC,,0.00,0.0,WeatherDisplay:10.37,2013-02-24 05:45:00,
2013-02-24 05:50:00,34.1,30.4,30.41,SE,129,0.0,0.0,86,0.00,OVC,,0.00,0.0,WeatherDisplay:10.37,2013-02-24 05:50:00,
2013-02-24 05:55:00,33.7,30.0,30.41,SE,129,0.0,0.0,86,0.00,OVC,,0.00,0.0,WeatherDisplay:10.37,2013-02-24 05:55:00,
2013-02-24 06:01:00,33.4,29.9,30.41,SE,124,1.2,1.2,87,0.00,OVC,,0.00,0.0,WeatherDisplay:10.37,2013-02-24 06:01:00,
2013-02-24 06:06:00,33.1,29.7,30.41,ESE,122,0.0,0.2,87,0.00,OVC,,0.00,0.0,WeatherDisplay:10.37,2013-02-24 06:06:00,
2013-02-24 06:11:00,32.7,29.5,30.41,SE,131,4.6,4.6,88,0.00,OVC,,0.00,0.0,WeatherDisplay:10.37,2013-02-24 06:11:00,
2013-02-24 06:16:00,32.4,29.5,30.41,ESE,120,1.2,1.2,89,0.00,OVC,,0.00,0.0,WeatherDisplay:10.37,2013-02-24 06:16:00,
2013-02-24 06:21:00,32.3,29.7,30.41,ESE,102,1.2,1.2,90,0.00,OVC,,0.00,0.0,WeatherDisplay:10.37,2013-02-24 06:21:00,
2013-02-24 06:26:00,32.7,30.1,30.42,SE,126,1.2,1.2,90,0.00,OVC,,0.00,0.0,WeatherDisplay:10.37,2013-02-24 06:26:00,
2013-02-24 06:31:00,32.5,29.6,30.42,ESE,120,1.2,1.2,89,0.00,OVC,,0.00,0.0,WeatherDisplay:10.37,2013-02-24 06:31:00,
2013-02-24 06:36:00,32.7,30.1,30.42,SE,129,0.0,0.0,90,0.00,OVC,,0.00,0.0,WeatherDisplay:10.37,2013-02-24 06:36:00,
2013-02-24 06:41:00,32.8,30.2,30.42,ESE,119,1.2,0.0,90,0.00,OVC,,0.00,0.0,WeatherDisplay:10.37,2013-02-24 06:41:00,
2013-02-24 06:46:00,32.8,30.2,30.42,ESE,119,0.0,0.0,90,0.00,OVC,,0.00,0.0,WeatherDisplay:10.37,2013-02-24 06:46:00,
2013-02-24 06:51:00,32.8,30.2,30.42,ESE,119,0.0,0.0,90,0.00,OVC,,0.00,0.0,WeatherDisplay:10.37,2013-02-24 06:51:00,
2013-02-24 06:56:00,32.7,30.1,30.43,ESE,118,0.0,0.0,90,0.00,OVC,,0.00,0.0,WeatherDisplay:10.37,2013-02-24 06:56:00,
2013-02-24 07:01:00,32.7,30.1,30.43,ESE,119,0.0,0.0,90,0.00,BKN,OVC,0.00,0.0,WeatherDisplay:10.37,2013-02-24 07:01:00,
2013-02-24 07:06:00,32.6,30.0,30.42,ESE,119,0.0,0.0,90,0.00,BKN,OVC,0.00,0.0,WeatherDisplay:10.37,2013-02-24 07:06:00,
2013-02-24 07:11:00,32.4,29.8,30.42,SE,126,1.0,0.0,90,0.00,BKN,OVC,0.00,0.0,WeatherDisplay:10.37,2013-02-24 07:11:00,
2013-02-24 07:16:00,32.3,29.7,30.42,SE,124,1.2,1.2,90,0.00,BKN,OVC,0.00,0.0,WeatherDisplay:10.37,2013-02-24 07:16:00,
2013-02-24 07:21:00,32.3,29.7,30.43,SE,124,0.0,0.0,90,0.00,BKN,OVC,0.00,0.0,WeatherDisplay:10.37,2013-02-24 07:21:00,
2013-02-24 07:26:00,32.2,29.6,30.43,SE,124,0.0,0.0,90,0.00,BKN,OVC,0.00,0.0,WeatherDisplay:10.37,2013-02-24 07:26:00,
2013-02-24 07:31:00,32.2,29.6,30.43,SE,124,0.0,0.0,90,0.00,BKN,OVC,0.00,0.0,WeatherDisplay:10.37,2013-02-24 07:31:00,
2013-02-24 07:36:00,32.2,29.9,30.43,ESE,121,1.2,0.0,91,0.00,BKN,OVC,0.00,0.0,WeatherDisplay:10.37,2013-02-24 07:36:00,
2013-02-24 07:41:00,32.2,29.9,30.43,ESE,122,1.2,0.0,91,0.00,BKN,OVC,0.00,0.0,WeatherDisplay:10.37,2013-02-24 07:41:00,
2013-02-24 07:46:00,32.2,29.9,30.43,ESE,121,1.2,0.0,91,0.00,BKN,OVC,0.00,0.0,WeatherDisplay:10.37,2013-02-24 07:46:00,
2013-02-24 07:51:00,32.2,29.9,30.43,ESE,121,1.0,1.0,91,0.00,BKN,OVC,0.00,0.0,WeatherDisplay:10.37,2013-02-24 07:51:00,
2013-02-24 07:56:00,32.4,30.1,30.43,SE,124,2.0,2.0,91,0.00,BKN,OVC,0.00,0.0,WeatherDisplay:10.37,2013-02-24 07:56:00,
2013-02-24 08:01:00,32.9,30.6,30.43,ESE,119,0.0,0.0,91,0.00,BKN,OVC,0.00,0.0,WeatherDisplay:10.37,2013-02-24 08:01:00,
2013-02-24 08:07:00,33.1,30.8,30.44,ESE,119,0.0,0.0,91,0.00,BKN,OVC,0.00,0.0,WeatherDisplay:10.37,2013-02-24 08:07:00,
2013-02-24 08:12:00,33.3,31.0,30.44,ESE,118,0.0,0.0,91,0.00,BKN,OVC,0.00,0.0,WeatherDisplay:10.37,2013-02-24 08:12:00,
2013-02-24 08:17:00,33.5,30.9,30.44,SE,124,1.2,1.2,90,0.00,BKN,OVC,0.00,0.0,WeatherDisplay:10.37,2013-02-24 08:17:00,
2013-02-24 08:22:00,33.6,31.0,30.44,ESE,118,1.2,1.2,90,0.00,BKN,OVC,0.00,0.0,WeatherDisplay:10.37,2013-02-24 08:22:00,
2013-02-24 08:27:00,33.9,31.3,30.44,SE,129,1.2,1.2,90,0.00,BKN,OVC,0.00,0.0,WeatherDisplay:10.37,2013-02-24 08:27:00,
2013-02-24 08:32:00,34.1,31.5,30.44,ESE,120,1.2,1.2,90,0.00,BKN,OVC,0.00,0.0,WeatherDisplay:10.37,2013-02-24 08:32:00,
2013-02-24 08:37:00,34.4,31.8,30.44,ESE,106,1.2,1.2,90,0.00,BKN,OVC,0.00,0.0,WeatherDisplay:10.37,2013-02-24 08:37:00,
2013-02-24 08:42:00,34.7,31.8,30.44,ESE,115,2.3,2.3,89,0.00,BKN,OVC,0.00,0.0,WeatherDisplay:10.37,2013-02-24 08:42:00,
2013-02-24 08:47:00,35.1,31.9,30.44,ESE,109,1.2,1.2,88,0.00,SCT,OVC,0.00,0.0,WeatherDisplay:10.37,2013-02-24 08:47:00,
2013-02-24 08:52:00,35.3,32.1,30.44,ESE,108,3.5,3.5,88,0.00,SCT,OVC,0.00,0.0,WeatherDisplay:10.37,2013-02-24 08:52:00,
2013-02-24 08:57:00,35.5,32.3,30.45,ESE,115,2.3,2.3,88,0.00,SCT,OVC,0.00,0.0,WeatherDisplay:10.37,2013-02-24 08:57:00,
2013-02-24 09:02:00,35.8,32.3,30.45,SE,136,1.2,1.2,87,0.00,BKN,OVC,0.00,0.0,WeatherDisplay:10.37,2013-02-24 09:02:00,
2013-02-24 09:07:00,35.9,32.4,30.45,ESE,115,1.2,1.2,87,0.00,BKN,OVC,0.00,0.0,WeatherDisplay:10.37,2013-02-24 09:07:00,
2013-02-24 09:12:00,35.9,32.4,30.45,ESE,115,0.0,0.0,87,0.00,BKN,OVC,0.00,0.0,WeatherDisplay:10.37,2013-02-24 09:12:00,
2013-02-24 09:17:00,36.1,32.6,30.45,ESE,115,1.2,1.2,87,0.00,BKN,OVC,0.00,0.0,WeatherDisplay:10.37,2013-02-24 09:17:00,
2013-02-24 09:22:00,36.3,32.5,30.45,ESE,115,0.0,0.0,86,0.00,BKN,OVC,0.00,0.0,WeatherDisplay:10.37,2013-02-24 09:22:00,
2013-02-24 09:27:00,36.4,32.6,30.45,ESE,115,0.0,0.0,86,0.00,BKN,OVC,0.00,0.0,WeatherDisplay:10.37,2013-02-24 09:27:00,
2013-02-24 09:32:00,36.5,32.7,30.45,ESE,115,0.0,0.0,86,0.00,-SN,OVC,0.00,0.0,WeatherDisplay:10.37,2013-02-24 09:32:00,
2013-02-24 09:37:00,36.7,32.9,30.45,ESE,115,0.0,0.0,86,0.00,-SN,OVC,0.00,0.0,WeatherDisplay:10.37,2013-02-24 09:37:00,
2013-02-24 09:42:00,36.9,33.1,30.45,ESE,115,0.0,0.0,86,0.00,-SN,OVC,0.00,0.0,WeatherDisplay:10.37,2013-02-24 09:42:00,
2013-02-24 09:47:00,37.1,33.0,30.45,ESE,115,0.0,0.0,85,0.00,-SN,OVC,0.00,0.0,WeatherDisplay:10.37,2013-02-24 09:47:00,
2013-02-24 09:52:00,37.4,33.3,30.45,ESE,115,0.0,0.0,85,0.00,-SN,OVC,0.00,0.0,WeatherDisplay:10.37,2013-02-24 09:52:00,
2013-02-24 09:57:00,37.6,33.2,30.45,ESE,115,0.0,0.0,84,0.00,-SN,OVC,0.00,0.0,WeatherDisplay:10.37,2013-02-24 09:57:00,
2013-02-24 10:02:00,37.8,33.4,30.45,ESE,115,0.0,0.0,84,0.00,-SN,OVC,0.00,0.0,WeatherDisplay:10.37,2013-02-24 10:02:00,
2013-02-24 10:07:00,38.0,33.3,30.45,ESE,115,1.0,1.0,83,0.00,-SN,OVC,0.00,0.0,WeatherDisplay:10.37,2013-02-24 10:07:00,
2013-02-24 10:12:00,38.3,33.0,30.45,ESE,122,1.2,0.0,81,0.00,-SN,OVC,0.00,0.0,WeatherDisplay:10.37,2013-02-24 10:12:00,
2013-02-24 10:17:00,38.4,33.4,30.45,ESE,121,3.5,3.5,82,0.00,BKN,OVC,0.00,0.0,WeatherDisplay:10.37,2013-02-24 10:17:00,
2013-02-24 10:22:00,38.2,33.5,30.45,SE,139,3.5,3.5,83,0.00,BKN,OVC,0.00,0.0,WeatherDisplay:10.37,2013-02-24 10:22:00,
2013-02-24 10:27:00,38.0,33.3,30.45,ESE,110,3.5,3.5,83,0.00,BKN,OVC,0.00,0.0,WeatherDisplay:10.37,2013-02-24 10:27:00,
2013-02-24 10:32:00,37.8,33.1,30.45,SE,125,3.5,3.5,83,0.00,BKN,OVC,0.00,0.0,WeatherDisplay:10.37,2013-02-24 10:32:00,
2013-02-24 10:37:00,37.8,33.1,30.46,SE,142,2.3,2.3,83,0.00,BKN,OVC,0.00,0.0,WeatherDisplay:10.37,2013-02-24 10:37:00,
2013-02-24 10:42:00,38.0,33.3,30.46,SSE,153,2.3,2.3,83,0.00,BKN,OVC,0.00,0.0,WeatherDisplay:10.37,2013-02-24 10:42:00,
2013-02-24 10:47:00,38.1,33.4,30.46,ESE,103,2.3,2.3,83,0.00,OVC,,0.00,0.0,WeatherDisplay:10.37,2013-02-24 10:47:00,
2013-02-24 10:52:00,38.3,33.6,30.46,SE,134,1.2,1.2,83,0.00,OVC,,0.00,0.0,WeatherDisplay:10.37,2013-02-24 10:52:00,
2013-02-24 10:57:00,38.4,33.7,30.46,SE,134,1.2,0.0,83,0.00,OVC,,0.00,0.0,WeatherDisplay:10.37,2013-02-24 10:57:00,
2013-02-24 11:02:00,38.4,34.0,30.46,SE,134,1.2,1.2,84,0.00,BKN,OVC,0.00,0.0,WeatherDisplay:10.37,2013-02-24 11:02:00,
2013-02-24 11:07:00,38.4,33.7,30.46,SE,134,0.0,0.0,83,0.00,BKN,OVC,0.00,0.0,WeatherDisplay:10.37,2013-02-24 11:07:00,
2013-02-24 11:12:00,38.5,33.8,30.46,SE,129,1.2,0.0,83,0.00,BKN,OVC,0.00,0.0,WeatherDisplay:10.37,2013-02-24 11:12:00,
2013-02-24 11:17:00,38.7,34.0,30.46,SE,126,0.0,0.0,83,0.00,BKN,OVC,0.00,0.0,WeatherDisplay:10.37,2013-02-24 11:17:00,
2013-02-24 11:22:00,38.9,34.2,30.46,SE,141,0.0,0.0,83,0.00,BKN,OVC,0.00,0.0,WeatherDisplay:10.37,2013-02-24 11:22:00,
2013-02-24 11:27:00,39.0,34.0,30.47,SE,141,0.0,0.0,82,0.00,BKN,OVC,0.00,0.0,WeatherDisplay:10.37,2013-02-24 11:27:00,
2013-02-24 11:32:00,39.0,33.7,30.47,South,174,2.3,0.0,81,0.00,BKN,OVC,0.00,0.0,WeatherDisplay:10.37,2013-02-24 11:32:00,
2013-02-24 11:37:00,38.9,33.6,30.47,ESE,102,3.0,3.0,81,0.00,BKN,OVC,0.00,0.0,WeatherDisplay:10.37,2013-02-24 11:37:00,
2013-02-24 11:42:00,38.7,33.4,30.47,SE,142,0.0,0.0,81,0.00,BKN,OVC,0.00,0.0,WeatherDisplay:10.37,2013-02-24 11:42:00,
2013-02-24 11:47:00,38.6,33.6,30.47,SE,142,0.0,0.0,82,0.00,-RA,OVC,0.00,0.0,WeatherDisplay:10.37,2013-02-24 11:47:00,
2013-02-24 11:52:00,38.5,33.8,30.47,SE,143,0.0,0.0,83,0.00,-RA,OVC,0.00,0.0,WeatherDisplay:10.37,2013-02-24 11:52:00,
2013-02-24 11:57:00,38.4,33.4,30.47,SSE,150,1.2,1.2,82,0.00,-RA,OVC,0.00,0.0,WeatherDisplay:10.37,2013-02-24 11:57:00,
2013-02-24 12:02:00,38.4,33.4,30.47,SE,136,0.0,0.0,82,0.00,BKN,OVC,0.00,0.0,WeatherDisplay:10.37,2013-02-24 12:02:00,
2013-02-24 12:07:00,38.7,34.0,30.46,SE,137,0.0,0.0,83,0.00,BKN,OVC,0.00,0.0,WeatherDisplay:10.37,2013-02-24 12:07:00,
2013-02-24 12:12:00,39.1,34.4,30.46,SE,136,0.0,0.0,83,0.00,BKN,OVC,0.00,0.0,WeatherDisplay:10.37,2013-02-24 12:12:00,
2013-02-24 12:17:00,39.4,34.4,30.46,SE,137,0.0,0.0,82,0.00,BKN,OVC,0.00,0.0,WeatherDisplay:10.37,2013-02-24 12:17:00,
2013-02-24 12:22:00,39.7,34.7,30.46,SE,137,0.0,0.0,82,0.00,BKN,OVC,0.00,0.0,WeatherDisplay:10.37,2013-02-24 12:22:00,
2013-02-24 12:27:00,40.0,34.6,30.46,SE,136,0.0,0.0,81,0.00,BKN,OVC,0.00,0.0,WeatherDisplay:10.37,2013-02-24 12:27:00,
2013-02-24 12:32:00,40.3,34.6,30.46,SE,136,0.0,0.0,80,0.00,BKN,OVC,0.00,0.0,WeatherDisplay:10.37,2013-02-24 12:32:00,
2013-02-24 12:38:00,40.6,34.6,30.46,SE,135,1.2,0.0,79,0.00,BKN,OVC,0.00,0.0,WeatherDisplay:10.37,2013-02-24 12:38:00,
2013-02-24 12:43:00,40.7,34.4,30.46,SE,136,0.0,0.0,78,0.00,BKN,OVC,0.00,0.0,WeatherDisplay:10.37,2013-02-24 12:43:00,
2013-02-24 12:48:00,40.7,34.0,30.46,SE,131,0.0,0.0,77,0.00,BKN,OVC,0.00,0.0,WeatherDisplay:10.37,2013-02-24 12:48:00,
2013-02-24 12:53:00,40.8,34.1,30.46,SE,131,0.0,0.0,77,0.00,BKN,OVC,0.00,0.0,WeatherDisplay:10.37,2013-02-24 12:53:00,
2013-02-24 12:58:00,40.9,34.2,30.45,SE,131,1.2,0.0,77,0.00,BKN,OVC,0.00,0.0,WeatherDisplay:10.37,2013-02-24 12:58:00,
2013-02-24 13:03:00,41.0,34.0,30.45,SE,131,1.2,0.0,76,0.00,SCT,OVC,0.00,0.0,WeatherDisplay:10.37,2013-02-24 13:03:00,
2013-02-24 13:08:00,41.3,34.3,30.45,SE,131,0.0,0.0,76,0.00,SCT,OVC,0.00,0.0,WeatherDisplay:10.37,2013-02-24 13:08:00,
2013-02-24 13:13:00,41.7,34.4,30.45,SW,231,0.0,0.1,75,0.00,SCT,OVC,0.00,0.0,WeatherDisplay:10.37,2013-02-24 13:13:00,
2013-02-24 13:18:00,42.0,34.3,30.45,SW,231,0.0,0.0,74,0.00,SCT,OVC,0.00,0.0,WeatherDisplay:10.37,2013-02-24 13:18:00,
2013-02-24 13:23:00,42.3,34.6,30.44,North,4,0.0,0.0,74,0.00,SCT,OVC,0.00,0.0,WeatherDisplay:10.37,2013-02-24 13:23:00,
2013-02-24 13:28:00,42.8,35.4,30.44,NNW,333,1.2,1.2,75,0.00,SCT,OVC,0.00,0.0,WeatherDisplay:10.37,2013-02-24 13:28:00,
2013-02-24 13:33:00,43.0,34.9,30.44,NW,321,1.2,1.2,73,0.00,SCT,OVC,0.00,0.0,WeatherDisplay:10.37,2013-02-24 13:33:00,
2013-02-24 13:38:00,43.0,34.2,30.44,WSW,249,1.2,1.2,71,0.00,SCT,OVC,0.00,0.0,WeatherDisplay:10.37,2013-02-24 13:38:00,
2013-02-24 13:43:00,43.3,35.2,30.44,West,260,2.3,2.3,73,0.00,SCT,OVC,0.00,0.0,WeatherDisplay:10.37,2013-02-24 13:43:00,
2013-02-24 13:48:00,43.5,34.7,30.44,SE,129,1.2,1.2,71,0.00,FEW,OVC,0.00,0.0,WeatherDisplay:10.37,2013-02-24 13:48:00,
2013-02-24 13:53:00,43.7,34.6,30.44,SSE,158,1.2,0.0,70,0.00,FEW,OVC,0.00,0.0,WeatherDisplay:10.37,2013-02-24 13:53:00,
2013-02-24 13:59:00,43.9,34.4,30.44,WNW,301,3.5,3.5,69,0.00,FEW,OVC,0.00,0.0,WeatherDisplay:10.37,2013-02-24 13:59:00,
2013-02-24 14:04:00,43.7,34.6,30.44,SW,218,1.2,0.0,70,0.00,SCT,OVC,0.00,0.0,WeatherDisplay:10.37,2013-02-24 14:04:00,
2013-02-24 14:09:00,43.9,35.1,30.44,SSW,195,0.0,0.0,71,0.00,SCT,OVC,0.00,0.0,WeatherDisplay:10.37,2013-02-24 14:09:00,
2013-02-24 14:14:00,44.0,35.2,30.44,SE,135,2.3,2.3,71,0.00,SCT,OVC,0.00,0.0,WeatherDisplay:10.37,2013-02-24 14:14:00,
2013-02-24 14:19:00,44.2,34.7,30.43,ESE,115,1.2,1.2,69,0.00,SCT,OVC,0.00,0.0,WeatherDisplay:10.37,2013-02-24 14:19:00,
2013-02-24 14:24:00,44.2,34.3,30.44,SW,219,1.2,0.0,68,0.00,SCT,OVC,0.00,0.0,WeatherDisplay:10.37,2013-02-24 14:24:00,
2013-02-24 14:29:00,43.9,34.4,30.43,West,271,1.2,1.2,69,0.00,SCT,OVC,0.00,0.0,WeatherDisplay:10.37,2013-02-24 14:29:00,
2013-02-24 14:34:00,43.8,34.6,30.43,SSW,194,0.0,0.0,70,0.00,SCT,OVC,0.00,0.0,WeatherDisplay:10.37,2013-02-24 14:34:00,
2013-02-24 14:39:00,43.9,35.1,30.43,West,262,1.2,1.2,71,0.00,SCT,OVC,0.00,0.0,WeatherDisplay:10.37,2013-02-24 14:39:00,
2013-02-24 14:44:00,44.0,35.2,30.43,West,269,1.2,1.2,71,0.00,SCT,OVC,0.00,0.0,WeatherDisplay:10.37,2013-02-24 14:44:00,
2013-02-24 14:49:00,44.2,35.4,30.43,WNW,292,1.2,1.2,71,0.00,SCT,OVC,0.00,0.0,WeatherDisplay:10.37,2013-02-24 14:49:00,
2013-02-24 14:54:00,44.5,35.3,30.43,West,276,0.0,0.0,70,0.00,SCT,OVC,0.00,0.0,WeatherDisplay:10.37,2013-02-24 14:54:00,
2013-02-24 14:59:00,44.6,34.7,30.43,SW,231,1.2,1.2,68,0.00,SCT,OVC,0.00,0.0,WeatherDisplay:10.37,2013-02-24 14:59:00,
2013-02-24 15:04:00,44.3,34.8,30.43,SE,139,1.2,1.2,69,0.00,SCT,OVC,0.00,0.0,WeatherDisplay:10.37,2013-02-24 15:04:00,
2013-02-24 15:09:00,44.1,34.6,30.43,West,280,3.5,3.5,69,0.00,SCT,OVC,0.00,0.0,WeatherDisplay:10.37,2013-02-24 15:09:00,
2013-02-24 15:14:00,43.8,34.6,30.43,WNW,287,1.2,1.2,70,0.00,SCT,OVC,0.00,0.0,WeatherDisplay:10.37,2013-02-24 15:14:00,
2013-02-24 15:19:00,43.7,34.9,30.43,West,263,0.0,0.0,71,0.00,SCT,OVC,0.00,0.0,WeatherDisplay:10.37,2013-02-24 15:19:00,
2013-02-24 15:24:00,43.7,34.6,30.43,WNW,283,1.2,1.2,70,0.00,SCT,OVC,0.00,0.0,WeatherDisplay:10.37,2013-02-24 15:24:00,
2013-02-24 15:29:00,43.6,34.5,30.43,South,169,1.2,0.0,70,0.00,SCT,OVC,0.00,0.0,WeatherDisplay:10.37,2013-02-24 15:29:00,
2013-02-24 15:34:00,43.6,34.8,30.43,SW,231,1.2,0.0,71,0.00,SCT,OVC,0.00,0.0,WeatherDisplay:10.37,2013-02-24 15:34:00,
2013-02-24 15:39:00,43.6,34.8,30.43,SW,231,0.0,0.0,71,0.00,SCT,OVC,0.00,0.0,WeatherDisplay:10.37,2013-02-24 15:39:00,
2013-02-24 15:44:00,43.6,34.5,30.43,WSW,238,0.0,0.0,70,0.00,SCT,OVC,0.00,0.0,WeatherDisplay:10.37,2013-02-24 15:44:00,
2013-02-24 15:49:00,43.5,34.7,30.42,WSW,238,0.0,0.0,71,0.00,BKN,OVC,0.00,0.0,WeatherDisplay:10.37,2013-02-24 15:49:00,
2013-02-24 15:54:00,43.4,34.3,30.42,WSW,238,1.2,1.2,70,0.00,BKN,OVC,0.00,0.0,WeatherDisplay:10.37,2013-02-24 15:54:00,
2013-02-24 15:59:00,43.3,34.5,30.43,SE,127,1.2,1.2,71,0.00,BKN,OVC,0.00,0.0,WeatherDisplay:10.37,2013-02-24 15:59:00,
2013-02-24 16:04:00,43.2,34.4,30.43,SSW,210,0.0,0.0,71,0.00,-RA,OVC,0.00,0.0,WeatherDisplay:10.37,2013-02-24 16:04:00,
2013-02-24 16:09:00,43.1,34.7,30.43,SSW,210,0.0,0.0,72,0.00,-RA,OVC,0.00,0.0,WeatherDisplay:10.37,2013-02-24 16:09:00,
2013-02-24 16:14:00,42.9,34.5,30.43,SSW,210,0.0,0.0,72,0.00,-RA,OVC,0.00,0.0,WeatherDisplay:10.37,2013-02-24 16:14:00,
2013-02-24 16:19:00,42.9,34.1,30.43,SSW,210,0.0,0.0,71,0.00,-RA,OVC,0.00,0.0,WeatherDisplay:10.37,2013-02-24 16:19:00,
2013-02-24 16:24:00,42.8,34.0,30.43,SSE,154,0.0,0.0,71,0.00,-RA,OVC,0.00,0.0,WeatherDisplay:10.37,2013-02-24 16:24:00,
2013-02-24 16:29:00,42.7,33.9,30.43,West,276,1.2,1.2,71,0.00,-RA,OVC,0.00,0.0,WeatherDisplay:10.37,2013-02-24 16:29:00,
2013-02-24 16:34:00,42.6,33.9,30.43,West,274,1.2,1.2,71,0.00,BKN,OVC,0.00,0.0,WeatherDisplay:10.37,2013-02-24 16:34:00,
2013-02-24 16:39:00,42.6,33.9,30.43,West,276,2.3,2.3,71,0.00,BKN,OVC,0.00,0.0,WeatherDisplay:10.37,2013-02-24 16:39:00,
2013-02-24 16:44:00,42.5,34.1,30.43,West,266,0.0,0.0,72,0.00,BKN,OVC,0.00,0.0,WeatherDisplay:10.37,2013-02-24 16:44:00,
2013-02-24 16:49:00,42.4,34.0,30.43,SW,226,0.0,0.0,72,0.00,BKN,OVC,0.00,0.0,WeatherDisplay:10.37,2013-02-24 16:49:00,
2013-02-24 16:54:00,42.4,34.0,30.44,South,186,1.2,0.0,72,0.00,BKN,OVC,0.00,0.0,WeatherDisplay:10.37,2013-02-24 16:54:00,
2013-02-24 16:59:00,42.3,33.9,30.44,West,259,0.0,0.0,72,0.00,BKN,OVC,0.00,0.0,WeatherDisplay:10.37,2013-02-24 16:59:00,
2013-02-24 17:04:00,42.2,33.8,30.43,West,264,1.2,1.2,72,0.00,BKN,OVC,0.00,0.0,WeatherDisplay:10.37,2013-02-24 17:04:00,
2013-02-24 17:09:00,42.1,33.7,30.43,SW,235,1.2,0.0,72,0.00,BKN,OVC,0.00,0.0,WeatherDisplay:10.37,2013-02-24 17:09:00,
2013-02-24 17:14:00,42.0,33.6,30.44,SW,233,0.0,0.0,72,0.00,BKN,OVC,0.00,0.0,WeatherDisplay:10.37,2013-02-24 17:14:00,
2013-02-24 17:19:00,41.9,33.5,30.44,SW,223,1.2,1.2,72,0.00,BKN,OVC,0.00,0.0,WeatherDisplay:10.37,2013-02-24 17:19:00,
2013-02-24 17:24:00,41.9,33.5,30.44,WSW,245,1.2,0.0,72,0.00,BKN,OVC,0.00,0.0,WeatherDisplay:10.37,2013-02-24 17:24:00,
2013-02-24 17:29:00,41.9,33.5,30.44,SW,224,1.2,0.0,72,0.00,BKN,OVC,0.00,0.0,WeatherDisplay:10.37,2013-02-24 17:29:00,
2013-02-24 17:34:00,41.9,33.2,30.44,SW,229,1.2,1.2,71,0.00,SCT,OVC,0.00,0.0,WeatherDisplay:10.37,2013-02-24 17:34:00,
2013-02-24 17:39:00,41.9,33.2,30.44,South,181,1.2,0.0,71,0.00,SCT,OVC,0.00,0.0,WeatherDisplay:10.37,2013-02-24 17:39:00,
2013-02-24 17:44:00,41.9,33.2,30.45,WSW,247,0.0,0.0,71,0.00,SCT,OVC,0.00,0.0,WeatherDisplay:10.37,2013-02-24 17:44:00,
2013-02-24 17:49:00,41.9,33.2,30.45,SSE,162,3.5,3.5,71,0.00,SCT,OVC,0.00,0.0,WeatherDisplay:10.37,2013-02-24 17:49:00,
2013-02-24 17:54:00,41.8,33.8,30.46,SSE,148,2.0,2.0,73,0.00,SCT,OVC,0.00,0.0,WeatherDisplay:10.37,2013-02-24 17:54:00,
2013-02-24 17:59:00,41.6,34.3,30.46,SE,136,1.2,0.0,75,0.00,SCT,OVC,0.00,0.0,WeatherDisplay:10.37,2013-02-24 17:59:00,
2013-02-24 18:04:00,41.3,34.6,30.46,SE,132,1.2,0.0,77,0.00,SCT,OVC,0.00,0.0,WeatherDisplay:10.37,2013-02-24 18:04:00,
2013-02-24 18:09:00,41.0,34.7,30.46,East,99,1.2,1.2,78,0.00,SCT,OVC,0.00,0.0,WeatherDisplay:10.37,2013-02-24 18:09:00,
2013-02-24 18:14:00,40.8,34.8,30.46,ESE,117,0.0,0.0,79,0.00,SCT,OVC,0.00,0.0,WeatherDisplay:10.37,2013-02-24 18:14:00,
2013-02-24 18:19:00,40.6,34.9,30.46,ESE,121,2.3,2.3,80,0.00,SCT,OVC,0.00,0.0,WeatherDisplay:10.37,2013-02-24 18:19:00,
2013-02-24 18:24:00,40.4,34.7,30.46,SE,125,0.0,0.1,80,0.00,SCT,OVC,0.00,0.0,WeatherDisplay:10.37,2013-02-24 18:24:00,
2013-02-24 18:29:00,40.3,34.9,30.47,ESE,123,1.2,0.0,81,0.00,SCT,OVC,0.00,0.0,WeatherDisplay:10.37,2013-02-24 18:29:00,
2013-02-24 18:35:00,40.1,34.7,30.47,South,176,1.0,1.0,81,0.00,SCT,OVC,0.00,0.0,WeatherDisplay:10.37,2013-02-24 18:35:00,
2013-02-24 18:40:00,39.9,34.5,30.47,SE,138,1.2,1.2,81,0.00,SCT,OVC,0.00,0.0,WeatherDisplay:10.37,2013-02-24 18:40:00,
2013-02-24 18:45:00,39.7,34.3,30.47,SE,132,0.0,1.0,81,0.00,SCT,OVC,0.00,0.0,WeatherDisplay:10.37,2013-02-24 18:45:00,
2013-02-24 18:50:00,39.3,34.0,30.47,SSW,207,0.0,0.0,81,0.00,BKN,OVC,0.00,0.0,WeatherDisplay:10.37,2013-02-24 18:50:00,
2013-02-24 18:55:00,38.9,33.6,30.47,SW,221,0.0,0.0,81,0.00,BKN,OVC,0.00,0.0,WeatherDisplay:10.37,2013-02-24 18:55:00,
2013-02-24 19:00:00,38.7,33.7,30.47,SW,221,0.0,0.0,82,0.00,BKN,OVC,0.00,0.0,WeatherDisplay:10.37,2013-02-24 19:00:00,
2013-02-24 19:05:00,38.5,33.8,30.47,SW,221,0.0,1.0,83,0.00,BKN,OVC,0.00,0.0,WeatherDisplay:10.37,2013-02-24 19:05:00,
2013-02-24 19:10:00,38.3,33.6,30.47,SW,221,0.0,0.0,83,0.00,BKN,OVC,0.00,0.0,WeatherDisplay:10.37,2013-02-24 19:10:00,
2013-02-24 19:15:00,38.1,33.4,30.47,SW,221,0.0,0.0,83,0.00,BKN,OVC,0.00,0.0,WeatherDisplay:10.37,2013-02-24 19:15:00,
2013-02-24 19:20:00,37.9,33.5,30.47,SW,221,0.0,0.0,84,0.00,BKN,OVC,0.00,0.0,WeatherDisplay:10.37,2013-02-24 19:20:00,
2013-02-24 19:25:00,37.7,33.0,30.47,SW,221,0.0,0.0,83,0.00,BKN,OVC,0.00,0.0,WeatherDisplay:10.37,2013-02-24 19:25:00,
2013-02-24 19:30:00,37.5,32.8,30.47,SW,221,0.0,0.0,83,0.00,BKN,OVC,0.00,0.0,WeatherDisplay:10.37,2013-02-24 19:30:00,
2013-02-24 19:35:00,37.5,33.1,30.48,SW,221,0.0,0.0,84,0.00,BKN,OVC,0.00,0.0,WeatherDisplay:10.37,2013-02-24 19:35:00,
2013-02-24 19:40:00,37.5,33.1,30.48,SW,221,0.0,0.0,84,0.00,BKN,OVC,0.00,0.0,WeatherDisplay:10.37,2013-02-24 19:40:00,
2013-02-24 19:45:00,37.4,32.7,30.48,SSW,206,0.0,1.0,83,0.00,BKN,OVC,0.00,0.0,WeatherDisplay:10.37,2013-02-24 19:45:00,
2013-02-24 19:50:00,37.0,32.1,30.48,South,180,0.0,0.0,82,0.00,BKN,OVC,0.00,0.0,WeatherDisplay:10.37,2013-02-24 19:50:00,
2013-02-24 19:55:00,36.8,32.2,30.48,South,180,0.0,0.0,83,0.00,BKN,OVC,0.00,0.0,WeatherDisplay:10.37,2013-02-24 19:55:00,
2013-02-24 20:00:00,36.7,32.3,30.48,South,180,0.0,0.0,84,0.00,BKN,OVC,0.00,0.0,WeatherDisplay:10.37,2013-02-24 20:00:00,
2013-02-24 20:05:00,36.7,32.0,30.48,South,169,0.0,0.0,83,0.00,BKN,OVC,0.00,0.0,WeatherDisplay:10.37,2013-02-24 20:05:00,
2013-02-24 20:10:00,36.5,31.8,30.48,SSE,162,0.0,0.0,83,0.00,BKN,OVC,0.00,0.0,WeatherDisplay:10.37,2013-02-24 20:10:00,
2013-02-24 20:15:00,36.3,31.9,30.48,SE,140,0.0,0.0,84,0.00,BKN,OVC,0.00,0.0,WeatherDisplay:10.37,2013-02-24 20:15:00,
2013-02-24 20:20:00,36.2,31.8,30.48,SE,138,1.2,0.0,84,0.00,BKN,OVC,0.00,0.0,WeatherDisplay:10.37,2013-02-24 20:20:00,
2013-02-24 20:25:00,36.4,32.0,30.48,SE,137,1.0,3.0,84,0.00,BKN,OVC,0.00,0.0,WeatherDisplay:10.37,2013-02-24 20:25:00,
2013-02-24 20:30:00,37.2,32.5,30.48,SE,133,0.0,0.0,83,0.00,BKN,OVC,0.00,0.0,WeatherDisplay:10.37,2013-02-24 20:30:00,
2013-02-24 20:35:00,37.8,32.5,30.48,West,276,1.2,0.0,81,0.00,BKN,OVC,0.00,0.0,WeatherDisplay:10.37,2013-02-24 20:35:00,
2013-02-24 20:40:00,38.4,32.8,30.48,SSW,204,0.0,2.0,80,0.00,BKN,OVC,0.00,0.0,WeatherDisplay:10.37,2013-02-24 20:40:00,
2013-02-24 20:45:00,38.7,33.1,30.49,SE,138,0.0,2.0,80,0.00,BKN,OVC,0.00,0.0,WeatherDisplay:10.37,2013-02-24 20:45:00,
2013-02-24 20:50:00,38.8,32.8,30.49,SE,135,1.0,0.0,79,0.00,BKN,OVC,0.00,0.0,WeatherDisplay:10.37,2013-02-24 20:50:00,
2013-02-24 20:55:00,38.9,32.9,30.49,SSE,148,0.0,0.0,79,0.00,BKN,OVC,0.00,0.0,WeatherDisplay:10.37,2013-02-24 20:55:00,
2013-02-24 21:00:00,39.0,33.0,30.49,South,173,0.0,0.0,79,0.00,BKN,OVC,0.00,0.0,WeatherDisplay:10.37,2013-02-24 21:00:00,
2013-02-24 21:05:00,38.9,32.9,30.49,South,173,0.0,0.0,79,0.00,BKN,OVC,0.00,0.0,WeatherDisplay:10.37,2013-02-24 21:05:00,
2013-02-24 21:10:00,38.8,33.2,30.49,South,174,0.0,0.0,80,0.00,BKN,OVC,0.00,0.0,WeatherDisplay:10.37,2013-02-24 21:10:00,
2013-02-24 21:15:00,38.5,33.2,30.49,South,172,0.0,0.0,81,0.00,BKN,OVC,0.00,0.0,WeatherDisplay:10.37,2013-02-24 21:15:00,
2013-02-24 21:20:00,38.2,32.8,30.49,SSE,167,0.0,0.0,81,0.00,BKN,OVC,0.00,0.0,WeatherDisplay:10.37,2013-02-24 21:20:00,
2013-02-24 21:25:00,37.8,32.5,30.49,SSE,162,0.0,0.0,81,0.00,BKN,OVC,0.00,0.0,WeatherDisplay:10.37,2013-02-24 21:25:00,
2013-02-24 21:30:00,37.6,32.9,30.49,SW,221,1.2,1.2,83,0.00,BKN,OVC,0.00,0.0,WeatherDisplay:10.37,2013-02-24 21:30:00,
2013-02-24 21:35:00,37.4,32.7,30.49,SSW,209,0.0,0.0,83,0.00,BKN,OVC,0.00,0.0,WeatherDisplay:10.37,2013-02-24 21:35:00,
2013-02-24 21:40:00,37.3,32.9,30.49,SSW,212,0.0,0.0,84,0.00,BKN,OVC,0.00,0.0,WeatherDisplay:10.37,2013-02-24 21:40:00,
2013-02-24 21:45:00,37.2,33.1,30.49,SSE,155,0.0,0.0,85,0.00,BKN,OVC,0.00,0.0,WeatherDisplay:10.37,2013-02-24 21:45:00,
2013-02-24 21:50:00,37.1,33.0,30.49,South,169,0.0,0.0,85,0.00,BKN,OVC,0.00,0.0,WeatherDisplay:10.37,2013-02-24 21:50:00,
2013-02-24 21:55:00,36.8,33.0,30.49,SSE,155,0.0,0.0,86,0.00,BKN,OVC,0.00,0.0,WeatherDisplay:10.37,2013-02-24 21:55:00,
2013-02-24 22:00:00,36.7,32.9,30.50,SSE,155,0.0,0.0,86,0.00,BKN,OVC,0.00,0.0,WeatherDisplay:10.37,2013-02-24 22:00:00,
2013-02-24 22:05:00,36.4,32.6,30.50,SSE,155,0.0,0.0,86,0.00,BKN,OVC,0.00,0.0,WeatherDisplay:10.37,2013-02-24 22:05:00,
2013-02-24 22:10:00,36.3,32.8,30.50,SSE,152,0.0,1.0,87,0.00,BKN,OVC,0.00,0.0,WeatherDisplay:10.37,2013-02-24 22:10:00,
2013-02-24 22:15:00,36.3,32.8,30.50,SE,141,0.0,1.0,87,0.00,BKN,OVC,0.00,0.0,WeatherDisplay:10.37,2013-02-24 22:15:00,
2013-02-24 22:20:00,36.4,32.9,30.50,ESE,122,1.0,1.0,87,0.00,BKN,OVC,0.00,0.0,WeatherDisplay:10.37,2013-02-24 22:20:00,
2013-02-24 22:25:00,36.5,33.0,30.49,SE,129,0.0,0.0,87,0.00,BKN,OVC,0.00,0.0,WeatherDisplay:10.37,2013-02-24 22:25:00,
2013-02-24 22:30:00,36.5,33.0,30.49,SE,130,0.0,1.0,87,0.00,BKN,OVC,0.00,0.0,WeatherDisplay:10.37,2013-02-24 22:30:00,
2013-02-24 22:35:00,36.5,33.0,30.49,SE,131,0.0,0.0,87,0.00,BKN,OVC,0.00,0.0,WeatherDisplay:10.37,2013-02-24 22:35:00,
2013-02-24 22:40:00,36.5,33.0,30.49,SE,131,0.0,0.0,87,0.00,BKN,OVC,0.00,0.0,WeatherDisplay:10.37,2013-02-24 22:40:00,
2013-02-24 22:45:00,36.5,33.0,30.50,SE,131,0.0,1.0,87,0.00,BKN,OVC,0.00,0.0,WeatherDisplay:10.37,2013-02-24 22:45:00,
2013-02-24 22:50:00,36.4,32.6,30.50,SE,132,1.2,0.0,86,0.00,BKN,OVC,0.00,0.0,WeatherDisplay:10.37,2013-02-24 22:50:00,
2013-02-24 22:55:00,36.4,32.6,30.50,SE,131,0.0,0.0,86,0.00,BKN,OVC,0.00,0.0,WeatherDisplay:10.37,2013-02-24 22:55:00,
2013-02-24 23:00:00,36.5,32.7,30.50,SE,136,0.0,1.0,86,0.00,BKN,OVC,0.00,0.0,WeatherDisplay:10.37,2013-02-24 23:00:00,
2013-02-24 23:05:00,36.5,32.4,30.50,SE,133,0.0,0.0,85,0.00,SCT,OVC,0.00,0.0,WeatherDisplay:10.37,2013-02-24 23:05:00,
2013-02-24 23:10:00,36.4,32.3,30.50,SE,133,0.0,0.0,85,0.00,SCT,OVC,0.00,0.0,WeatherDisplay:10.37,2013-02-24 23:10:00,
2013-02-24 23:15:00,36.0,32.0,30.50,SE,133,0.0,0.0,85,0.00,SCT,OVC,0.00,0.0,WeatherDisplay:10.37,2013-02-24 23:15:00,
2013-02-24 23:20:00,35.7,31.9,30.50,SE,133,0.0,0.0,86,0.00,SCT,OVC,0.00,0.0,WeatherDisplay:10.37,2013-02-24 23:20:00,
2013-02-24 23:25:00,35.4,31.6,30.50,SE,133,0.0,0.0,86,0.00,SCT,OVC,0.00,0.0,WeatherDisplay:10.37,2013-02-24 23:25:00,
2013-02-24 23:30:00,35.1,31.3,30.51,SE,133,0.0,0.1,86,0.00,SCT,OVC,0.00,0.0,WeatherDisplay:10.37,2013-02-24 23:30:00,
2013-02-24 23:35:00,34.4,30.6,30.51,SE,133,0.0,0.0,86,0.00,SCT,OVC,0.00,0.0,WeatherDisplay:10.37,2013-02-24 23:35:00,
2013-02-24 23:40:00,34.4,31.2,30.51,SE,133,0.0,1.0,88,0.00,SCT,OVC,0.00,0.0,WeatherDisplay:10.37,2013-02-24 23:40:00,
2013-02-24 23:45:00,34.2,31.0,30.51,SE,133,0.0,0.0,88,0.00,SCT,OVC,0.00,0.0,WeatherDisplay:10.37,2013-02-24 23:45:00,
2013-02-24 23:50:00,34.1,31.2,30.51,SE,133,0.0,0.0,89,0.00,SCT,OVC,0.00,0.0,WeatherDisplay:10.37,2013-02-24 23:50:00,
2013-02-24 23:55:00,34.1,31.2,30.51,SE,133,0.0,1.0,89,0.00,SCT,OVC,0.00,0.0,WeatherDisplay:10.37,2013-02-24 23:55:00,